首页
METAR-TAF:

METAR-TAF

机场 :

Newton Municipal Airport

牛顿, 艾奥瓦州, 美国

纬度: 41-41N, 经度: 093-01W, 海拔: 290米

当前天气观测

该预报发布于20分钟前的14:55 UTC
风速3节,风向西转西北
温度 18°C
湿度 100%
气压 1012 hPa
能見度: 12.9公里
少量云层高于600英尺
多云层高于1300英尺

METAR: KTNU 221455Z AUTO 29003KT 8SM FEW006 BKN013 18/18 A2989 RMK AO2 P0001 PWINO

时间: 10:15 (15:15 UTC)


TAF: 丢失

超过4000个机场的气象观测和天气预报(METAR&TAF报告)。

可查询的气象台以黄色和红色小点在地图上表示。

将鼠标移到小点上方,可查看气象台名称。

然后点击查看天气观测和预报。

如需切换地图:点击带黑十字的绿色按钮放大地图;点击带横线的绿色按钮缩小地图;或者点击绿色箭头查看邻近地区的地图。


METAR-TAF: